Time;durP1;ratioP1;P1;durP2;ratioP2;P2;SDS_P1;SDS_P2;PMS_P1;PMS_P2;Temp;Humidity;BMP_temperature;BMP_pressure;BME280_temperature;BME280_humidity;BME280_pressure;Samples;Min_cycle;Max_cycle;Signal;HPM_P1;HPM_P2
2023/01/04 00:05:12;;;;;;;1.10;0.60;;;;;;;6.60;95.05;99848.59;4976225;28;20333;-63
2023/01/04 00:07:39;;;;;;;2.63;0.70;;;;;;;6.57;94.68;99851.38;4982114;28;20217;-62
2023/01/04 00:10:06;;;;;;;2.43;0.80;;;;;;;6.50;94.95;99843.97;4978052;28;20232;-63
2023/01/04 00:12:35;;;;;;;1.17;0.53;;;;;;;6.51;95.95;99847.38;4981320;28;20257;-63
2023/01/04 00:15:03;;;;;;;1.17;0.60;;;;;;;6.66;96.49;99858.59;4977896;28;20641;-63
2023/01/04 00:17:30;;;;;;;2.67;1.67;;;;;;;6.69;96.22;99850.63;4980498;28;20696;-63
2023/01/04 00:19:56;;;;;;;3.03;0.90;;;;;;;6.58;97.12;99855.66;4977383;28;20229;-63
2023/01/04 00:22:23;;;;;;;1.77;0.70;;;;;;;6.55;97.44;99855.84;4982297;28;20304;-62
2023/01/04 00:24:49;;;;;;;1.80;0.80;;;;;;;6.51;97.97;99857.75;4981135;28;20239;-62
2023/01/04 00:27:16;;;;;;;2.30;0.70;;;;;;;6.55;97.53;99846.28;4983759;28;20245;-62
2023/01/04 00:29:44;;;;;;;1.83;0.73;;;;;;;6.64;96.50;99857.84;4981398;28;20229;-63
2023/01/04 00:32:11;;;;;;;3.40;0.90;;;;;;;6.58;96.12;99848.69;4984340;28;20288;-63
2023/01/04 00:34:38;;;;;;;1.73;1.00;;;;;;;6.81;95.66;99848.19;4984620;28;20229;-63
2023/01/04 00:37:04;;;;;;;3.03;1.00;;;;;;;6.75;95.48;99850.25;4983251;28;20331;-63
2023/01/04 00:39:31;;;;;;;1.47;0.90;;;;;;;6.71;95.50;99843.56;4986882;28;20232;-63
2023/01/04 00:42:03;;;;;;;4.83;0.90;;;;;;;6.77;95.49;99848.38;4983998;28;20293;-63
2023/01/04 00:44:32;;;;;;;2.93;1.10;;;;;;;6.57;96.87;99848.78;4986693;28;20233;-63
2023/01/04 00:46:59;;;;;;;1.67;0.90;;;;;;;6.49;96.74;99850.09;4982353;28;20233;-63
2023/01/04 00:49:28;;;;;;;2.67;0.90;;;;;;;6.44;97.63;99843.50;4986809;28;20284;-64
2023/01/04 00:51:55;;;;;;;2.03;0.90;;;;;;;6.53;96.26;99855.09;4983570;28;20736;-63
2023/01/04 00:54:21;;;;;;;2.80;1.00;;;;;;;6.67;95.78;99846.44;4986738;28;20225;-63
2023/01/04 00:56:48;;;;;;;4.50;1.10;;;;;;;6.44;97.27;99846.09;4984201;28;20645;-63
2023/01/04 00:59:17;;;;;;;3.63;1.80;;;;;;;6.21;99.70;99853.53;4986894;28;20233;-63
2023/01/04 01:01:44;;;;;;;5.30;1.70;;;;;;;5.98;100.00;99845.34;4983290;28;20326;-63
2023/01/04 01:04:12;;;;;;;5.73;2.53;;;;;;;5.79;100.00;99855.13;4984847;28;20700;-63
2023/01/04 01:06:41;;;;;;;10.57;2.53;;;;;;;5.61;100.00;99857.84;4987993;28;20231;-63
2023/01/04 01:09:08;;;;;;;10.77;3.93;;;;;;;5.47;100.00;99869.00;4984137;28;20288;-63
2023/01/04 01:11:37;;;;;;;5.93;4.47;;;;;;;5.24;100.00;99860.78;4985544;28;20228;-62
2023/01/04 01:14:04;;;;;;;10.23;4.80;;;;;;;5.03;100.00;99873.19;4981841;28;20240;-62
2023/01/04 01:16:31;;;;;;;7.20;4.60;;;;;;;4.77;100.00;99856.50;4988328;28;20224;-62
2023/01/04 01:18:57;;;;;;;6.53;4.97;;;;;;;4.65;100.00;99864.00;4982139;28;20235;-62
2023/01/04 01:21:27;;;;;;;8.13;5.83;;;;;;;4.43;100.00;99861.69;4988070;28;20230;-62
2023/01/04 01:23:56;;;;;;;13.47;5.30;;;;;;;4.32;100.00;99862.28;4983232;28;20229;-62
2023/01/04 01:26:24;;;;;;;6.90;4.83;;;;;;;4.23;100.00;99871.34;4988510;28;20280;-62
2023/01/04 01:28:51;;;;;;;10.83;5.73;;;;;;;4.14;100.00;99870.06;4982032;28;20228;-62
2023/01/04 01:31:22;;;;;;;8.27;5.07;;;;;;;4.03;100.00;99874.13;4985567;28;20229;-62
2023/01/04 01:33:50;;;;;;;7.23;5.10;;;;;;;3.92;100.00;99877.22;4982416;28;20634;-62
2023/01/04 01:36:19;;;;;;;7.67;4.97;;;;;;;3.80;100.00;99873.53;4984988;28;20250;-62
2023/01/04 01:38:46;;;;;;;11.27;6.40;;;;;;;3.69;100.00;99877.47;4982163;28;20220;-61
2023/01/04 01:41:18;;;;;;;9.47;5.20;;;;;;;3.60;100.00;99877.94;4985753;28;20298;-62
2023/01/04 01:43:52;;;;;;;9.90;5.57;;;;;;;3.56;100.00;99873.00;4982232;28;20222;-62
2023/01/04 01:46:22;;;;;;;8.53;5.00;;;;;;;3.54;100.00;99885.97;4985172;28;20231;-62
2023/01/04 01:48:51;;;;;;;9.60;6.13;;;;;;;3.41;100.00;99880.56;4982424;28;20225;-62
2023/01/04 01:51:19;;;;;;;9.20;5.30;;;;;;;3.30;100.00;99880.25;4984085;28;20234;-62
2023/01/04 01:53:49;;;;;;;7.80;5.40;;;;;;;3.35;100.00;99870.53;4982477;28;20233;-62
2023/01/04 01:56:19;;;;;;;6.70;4.60;;;;;;;3.18;100.00;99879.91;4984959;28;20368;-62
2023/01/04 01:58:51;;;;;;;6.53;4.50;;;;;;;3.19;100.00;99870.41;4982674;28;20548;-62
2023/01/04 02:01:18;;;;;;;7.90;4.80;;;;;;;3.21;100.00;99869.47;4985107;28;20711;-62
2023/01/04 02:03:45;;;;;;;7.60;4.97;;;;;;;3.15;100.00;99879.25;4982390;28;20261;-62
2023/01/04 02:06:17;;;;;;;8.97;5.20;;;;;;;3.08;100.00;99874.38;4985763;28;20296;-62
2023/01/04 02:08:44;;;;;;;8.70;5.50;;;;;;;3.09;100.00;99868.31;4982924;28;20252;-62
2023/01/04 02:11:11;;;;;;;11.17;6.43;;;;;;;3.04;100.00;99864.25;4985145;28;20233;-62
2023/01/04 02:16:34;;;;;;;11.47;7.23;;;;;;;2.98;100.00;99854.22;4982769;28;20241;-62
2023/01/04 02:19:15;;;;;;;11.87;7.30;;;;;;;2.96;100.00;99851.72;4981961;28;20733;-62
2023/01/04 02:21:58;;;;;;;15.03;8.17;;;;;;;3.00;100.00;99860.16;4985126;28;20291;-62
2023/01/04 02:24:42;;;;;;;14.47;8.17;;;;;;;3.03;100.00;99862.59;4982609;28;20237;-62
2023/01/04 02:27:39;;;;;;;12.70;7.30;;;;;;;3.04;100.00;99852.22;4982516;28;20241;-62
2023/01/04 02:30:56;;;;;;;13.00;8.83;;;;;;;2.95;100.00;99835.41;4981956;28;20237;-62
2023/01/04 02:33:41;;;;;;;13.37;9.30;;;;;;;3.04;100.00;99829.00;4982458;28;20344;-62
2023/01/04 02:36:14;;;;;;;13.30;8.53;;;;;;;3.01;100.00;99826.56;4982662;28;20287;-62
2023/01/04 02:38:54;;;;;;;15.00;8.67;;;;;;;2.98;100.00;99821.53;4984506;28;20293;-62
2023/01/04 02:41:27;;;;;;;26.73;10.23;;;;;;;2.90;100.00;99829.63;4987068;28;20237;-62
2023/01/04 02:46:48;;;;;;;49.90;11.00;;;;;;;2.75;100.00;99827.75;4988711;28;20320;-62
2023/01/04 02:51:59;;;;;;;85.40;12.13;;;;;;;2.77;100.00;99826.78;4986076;28;20239;-61
2023/01/04 02:54:31;;;;;;;130.13;12.50;;;;;;;2.76;100.00;99821.69;4988847;28;20704;-62
2023/01/04 02:57:14;;;;;;;30.50;11.33;;;;;;;2.77;100.00;99824.22;4985902;28;20308;-62
2023/01/04 02:59:59;;;;;;;87.07;12.37;;;;;;;2.81;100.00;99827.47;4989081;28;20237;-61
2023/01/04 03:08:32;;;;;;;177.40;12.67;;;;;;;2.70;100.00;99827.97;4986074;28;20600;-62
2023/01/04 03:11:02;;;;;;;53.23;10.87;;;;;;;2.72;100.00;99821.00;4985814;28;20299;-62
2023/01/04 03:13:33;;;;;;;29.87;10.47;;;;;;;2.74;100.00;99828.66;4988567;28;20229;-62
2023/01/04 03:16:05;;;;;;;40.07;10.27;;;;;;;2.70;100.00;99830.56;4985877;28;20796;-62
2023/01/04 03:18:37;;;;;;;19.83;11.47;;;;;;;2.64;100.00;99830.84;4988689;28;20239;-62
2023/01/04 03:21:04;;;;;;;26.40;10.67;;;;;;;2.59;100.00;99823.34;4984290;28;20256;-62
2023/01/04 03:37:43;;;;;;;16.37;10.03;;;;;;;2.40;100.00;99771.78;4987254;28;20239;-62
2023/01/04 03:48:48;;;;;;;15.00;8.33;;;;;;;2.51;100.00;99764.38;4987981;28;20320;-62
2023/01/04 03:51:22;;;;;;;9.47;6.37;;;;;;;2.62;100.00;99768.22;4984268;28;20241;-62
2023/01/04 03:53:57;;;;;;;9.03;6.00;;;;;;;2.70;100.00;99754.94;4983559;28;20609;-62
2023/01/04 03:56:25;;;;;;;8.90;5.77;;;;;;;2.68;100.00;99749.88;4987653;28;20231;-62
2023/01/04 03:58:53;;;;;;;8.50;4.50;;;;;;;2.80;100.00;99754.44;4983541;28;20230;-62
2023/01/04 04:01:21;;;;;;;6.67;3.97;;;;;;;2.89;100.00;99745.41;4987910;28;20257;-62
2023/01/04 04:09:17;;;;;;;4.07;1.60;;;;;;;3.84;100.00;99745.91;4985449;28;20239;-62
2023/01/04 04:11:44;;;;;;;2.27;0.77;;;;;;;4.20;100.00;99734.53;4985043;28;20241;-62
2023/01/04 04:14:10;;;;;;;4.23;1.43;;;;;;;4.46;100.00;99740.00;4987002;28;20237;-62
2023/01/04 04:16:37;;;;;;;1.60;0.90;;;;;;;4.86;100.00;99734.38;4987273;28;20299;-62
2023/01/04 04:19:04;;;;;;;2.60;1.20;;;;;;;4.95;100.00;99740.78;4984625;28;20233;-62
2023/01/04 04:21:30;;;;;;;12.17;6.93;;;;;;;5.28;96.13;99729.44;4987825;28;20248;-62
2023/01/04 04:23:58;;;;;;;2.83;1.90;;;;;;;5.46;95.42;99730.09;4984333;28;20242;-62
2023/01/04 04:26:25;;;;;;;6.23;5.03;;;;;;;5.52;95.34;99723.69;4986338;28;20307;-62
2023/01/04 04:28:51;;;;;;;3.80;2.00;;;;;;;5.61;93.56;99712.81;4984173;28;20237;-62
2023/01/04 04:31:18;;;;;;;3.93;2.20;;;;;;;5.83;90.29;99708.91;5193889;23;20320;-54
2023/01/04 04:33:44;;;;;;;2.67;1.70;;;;;;;5.93;88.53;99709.16;5003931;28;20271;-53
2023/01/04 04:36:11;;;;;;;2.70;1.17;;;;;;;6.17;86.16;99699.09;5007675;28;20236;-53
2023/01/04 04:38:38;;;;;;;1.30;1.07;;;;;;;6.32;83.48;99700.72;5007821;28;20590;-54
2023/01/04 04:43:58;;;;;;;1.20;0.87;;;;;;;6.60;79.65;99700.72;5004069;28;20326;-54
2023/01/04 04:46:24;;;;;;;2.97;0.90;;;;;;;6.78;77.51;99707.31;5007486;28;20648;-55
2023/01/04 04:48:51;;;;;;;1.80;0.97;;;;;;;6.88;77.59;99704.94;5004372;28;20232;-54
2023/01/04 04:51:18;;;;;;;3.00;0.87;;;;;;;6.92;78.15;99716.78;5007216;28;20324;-54
2023/01/04 04:53:45;;;;;;;0.83;0.50;;;;;;;6.89;78.77;99719.59;5004109;28;20278;-53
2023/01/04 04:56:13;;;;;;;2.67;0.70;;;;;;;6.88;79.19;99715.31;5007234;28;20240;-53
2023/01/04 04:58:40;;;;;;;1.80;0.80;;;;;;;6.97;78.07;99720.84;5006965;28;20612;-54
2023/01/04 05:01:07;;;;;;;0.80;0.50;;;;;;;7.07;76.98;99717.53;5004281;28;20232;-54
2023/01/04 05:03:34;;;;;;;3.03;0.60;;;;;;;7.08;76.43;99708.00;5006516;28;20233;-55
2023/01/04 05:06:01;;;;;;;2.30;0.60;;;;;;;7.13;75.98;99710.28;5003453;28;20220;-52
2023/01/04 05:08:27;;;;;;;2.20;0.87;;;;;;;7.12;76.83;99714.66;5006897;28;20244;-55
2023/01/04 05:10:54;;;;;;;2.03;0.70;;;;;;;7.15;76.33;99698.03;5004115;28;20620;-54
2023/01/04 05:13:21;;;;;;;1.00;0.70;;;;;;;7.15;75.79;99701.47;5006911;28;20854;-54
2023/01/04 05:15:49;;;;;;;1.53;0.70;;;;;;;7.17;76.10;99699.59;5004067;28;20231;-55
2023/01/04 05:18:20;;;;;;;2.23;0.83;;;;;;;7.19;75.20;99708.13;5004981;28;20716;-54
2023/01/04 05:20:47;;;;;;;1.70;0.60;;;;;;;7.34;74.58;99711.44;5004110;28;20228;-54
2023/01/04 05:23:15;;;;;;;2.07;0.67;;;;;;;7.31;74.65;99716.03;5005289;28;20240;-52
2023/01/04 05:25:42;;;;;;;3.17;0.60;;;;;;;7.40;72.13;99705.03;5006445;28;20272;-54
2023/01/04 05:28:10;;;;;;;2.60;0.70;;;;;;;7.41;72.29;99709.28;5004125;28;20635;-55
2023/01/04 05:30:49;;;;;;;2.53;0.77;;;;;;;7.43;72.37;99709.97;5005094;28;20235;-54
2023/01/04 05:33:16;;;;;;;3.77;0.70;;;;;;;7.48;72.16;99715.69;5003755;28;20232;-53
2023/01/04 05:35:42;;;;;;;1.73;0.57;;;;;;;7.51;72.62;99710.28;5006089;28;20235;-55
2023/01/04 05:38:09;;;;;;;3.53;0.67;;;;;;;7.54;71.51;99723.06;5003871;28;20232;-54
2023/01/04 05:40:35;;;;;;;2.40;0.60;;;;;;;7.58;70.80;99715.06;5005624;28;20228;-53
2023/01/04 05:43:02;;;;;;;2.87;0.60;;;;;;;7.62;70.70;99701.78;5003635;28;20228;-52
2023/01/04 05:45:29;;;;;;;1.20;0.40;;;;;;;7.67;70.74;99711.84;5006445;28;20221;-54
2023/01/04 05:47:56;;;;;;;2.00;0.50;;;;;;;7.72;69.22;99701.97;5003803;28;20233;-53
2023/01/04 05:50:24;;;;;;;2.20;0.50;;;;;;;7.75;68.33;99701.75;5005774;28;20275;-55
2023/01/04 05:52:52;;;;;;;1.87;0.60;;;;;;;7.81;68.79;99709.13;5002461;28;20237;-54
2023/01/04 05:55:18;;;;;;;0.73;0.50;;;;;;;7.82;68.67;99707.38;5005899;28;20224;-53
2023/01/04 05:57:45;;;;;;;1.03;0.53;;;;;;;7.76;69.34;99706.03;5001269;28;20229;-54
2023/01/04 06:00:13;;;;;;;3.03;0.50;;;;;;;7.80;70.12;99707.47;5006063;28;20236;-52
2023/01/04 06:02:41;;;;;;;0.97;0.50;;;;;;;7.80;70.11;99706.66;5004396;28;20263;-54
2023/01/04 06:05:10;;;;;;;3.40;0.60;;;;;;;7.77;71.55;99707.69;5000200;28;20279;-54
2023/01/04 06:07:37;;;;;;;1.47;0.50;;;;;;;7.79;70.27;99710.19;5005461;28;20269;-52
2023/01/04 06:10:04;;;;;;;1.67;0.60;;;;;;;7.80;71.25;99717.03;5002529;28;20240;-52
2023/01/04 06:12:30;;;;;;;2.03;0.50;;;;;;;7.92;70.96;99711.00;5006098;28;20224;-54
2023/01/04 06:14:57;;;;;;;1.23;0.50;;;;;;;7.86;70.13;99713.19;5002604;28;20705;-55
2023/01/04 06:17:23;;;;;;;1.97;0.80;;;;;;;7.86;71.45;99708.81;5007821;28;20259;-55
2023/01/04 06:19:50;;;;;;;2.17;0.53;;;;;;;7.79;70.73;99713.59;5003765;28;20232;-54
2023/01/04 06:22:19;;;;;;;2.37;0.70;;;;;;;7.77;71.92;99720.69;5005716;28;20631;-52
2023/01/04 06:24:45;;;;;;;2.30;0.80;;;;;;;7.80;72.13;99717.88;5002224;28;20232;-54
2023/01/04 06:27:12;;;;;;;2.00;0.60;;;;;;;7.87;72.10;99723.50;5005646;28;20247;-53
2023/01/04 06:29:38;;;;;;;1.83;0.50;;;;;;;7.87;74.10;99714.84;5005206;28;20239;-53
2023/01/04 06:32:07;;;;;;;3.07;0.63;;;;;;;7.88;73.02;99711.31;5002716;28;20245;-54
2023/01/04 06:34:34;;;;;;;8.13;2.60;;;;;;;7.85;74.89;99717.56;5005395;28;20708;-54
2023/01/04 06:37:00;;;;;;;1.83;0.80;;;;;;;7.75;74.80;99714.75;5002912;28;20228;-54
2023/01/04 06:39:28;;;;;;;1.70;0.50;;;;;;;7.82;75.44;99713.38;5005589;28;20302;-52
2023/01/04 06:41:55;;;;;;;2.30;0.40;;;;;;;7.77;75.60;99712.88;5002637;28;20758;-54
2023/01/04 06:44:21;;;;;;;1.90;0.60;;;;;;;7.74;74.21;99700.09;5005307;28;20220;-54
2023/01/04 06:46:48;;;;;;;2.77;1.10;;;;;;;7.68;76.36;99703.97;5001329;28;20232;-53
2023/01/04 06:49:14;;;;;;;3.23;1.40;;;;;;;7.64;75.95;99710.31;5005246;28;20710;-54
2023/01/04 06:51:41;;;;;;;2.77;0.70;;;;;;;7.62;75.63;99713.94;5005120;28;20294;-52
2023/01/04 06:54:10;;;;;;;0.60;0.50;;;;;;;7.68;77.07;99708.31;5001885;28;20282;-53
2023/01/04 06:56:38;;;;;;;2.27;1.10;;;;;;;7.65;75.74;99700.72;5005130;28;20224;-52
2023/01/04 06:59:05;;;;;;;3.37;0.90;;;;;;;7.67;74.99;99706.66;5001729;28;20251;-52
2023/01/04 07:01:32;;;;;;;0.70;0.70;;;;;;;7.70;72.82;99706.44;5005051;28;20243;-52
2023/01/04 07:03:58;;;;;;;3.57;1.30;;;;;;;7.72;72.73;99703.75;5002621;28;20328;-52
2023/01/04 07:06:25;;;;;;;0.90;0.50;;;;;;;7.80;72.05;99704.06;5005989;28;20233;-52
2023/01/04 07:08:51;;;;;;;2.33;0.70;;;;;;;7.81;72.63;99700.53;5002533;28;20361;-52
2023/01/04 07:11:18;;;;;;;0.77;0.47;;;;;;;7.88;70.65;99699.16;5005434;28;20240;-54
2023/01/04 07:13:46;;;;;;;2.37;0.40;;;;;;;7.87;72.29;99705.28;5002628;28;20239;-53
2023/01/04 07:16:12;;;;;;;2.33;0.40;;;;;;;7.90;74.48;99712.03;5005412;28;20240;-53
2023/01/04 07:18:39;;;;;;;2.20;0.50;;;;;;;7.85;75.38;99706.31;5005613;28;20291;-52
2023/01/04 07:21:06;;;;;;;1.87;0.60;;;;;;;7.77;77.01;99725.88;5002645;28;20235;-52
2023/01/04 07:23:32;;;;;;;1.40;0.53;;;;;;;7.74;75.92;99720.88;5005261;28;20216;-52
2023/01/04 07:26:01;;;;;;;1.53;0.50;;;;;;;7.72;76.82;99720.16;5010101;28;20224;-54
2023/01/04 07:31:13;;;;;;;3.10;0.50;;;;;;;7.64;79.39;99705.09;5006509;28;20232;-54
2023/01/04 07:33:40;;;;;;;5.03;0.70;;;;;;;7.63;79.46;99703.44;5008992;28;20232;-54
2023/01/04 07:36:07;;;;;;;1.70;0.60;;;;;;;7.60;79.75;99700.22;5006242;28;20585;-52
2023/01/04 07:38:34;;;;;;;2.10;1.03;;;;;;;7.57;80.43;99696.06;4992886;28;20688;-52
2023/01/04 07:41:01;;;;;;;1.73;0.60;;;;;;;7.54;82.11;99684.09;5004966;28;20282;-52
2023/01/04 07:43:27;;;;;;;2.77;0.50;;;;;;;7.51;80.08;99691.28;5008519;28;20632;-51
2023/01/04 07:45:54;;;;;;;2.57;0.50;;;;;;;7.47;82.62;99690.66;5004862;28;20302;-51
2023/01/04 07:48:22;;;;;;;1.83;0.80;;;;;;;7.47;83.26;99692.44;5008392;28;20631;-53
2023/01/04 07:50:49;;;;;;;1.73;0.97;;;;;;;7.44;84.56;99684.84;5005507;28;20253;-52
2023/01/04 07:53:17;;;;;;;1.97;0.80;;;;;;;7.41;84.22;99672.91;5007920;28;20643;-53
2023/01/04 07:55:44;;;;;;;2.23;0.67;;;;;;;7.41;83.38;99672.91;5005113;28;20268;-52
2023/01/04 07:58:11;;;;;;;1.80;0.97;;;;;;;7.48;83.13;99670.72;5008705;28;20271;-53
2023/01/04 08:00:37;;;;;;;4.13;0.70;;;;;;;7.49;83.45;99669.78;5008855;28;20773;-53
2023/01/04 08:03:04;;;;;;;1.53;0.60;;;;;;;7.53;82.42;99673.84;5005712;28;20241;-52
2023/01/04 08:05:33;;;;;;;1.13;0.50;;;;;;;7.60;82.34;99675.06;5008732;28;20229;-52
2023/01/04 08:08:02;;;;;;;2.87;0.53;;;;;;;7.62;81.04;99662.81;5005420;28;20244;-51
2023/01/04 08:10:29;;;;;;;4.23;1.67;;;;;;;7.65;82.22;99656.53;5008028;28;20232;-53
2023/01/04 08:12:58;;;;;;;2.00;0.83;;;;;;;7.72;80.54;99650.00;5005194;28;20236;-52
2023/01/04 08:15:25;;;;;;;1.73;0.73;;;;;;;7.79;80.39;99646.03;5022788;28;20809;-53
2023/01/04 08:17:52;;;;;;;1.97;1.10;;;;;;;7.80;80.86;99645.09;5005454;28;20562;-53
2023/01/04 08:20:18;;;;;;;1.47;0.70;;;;;;;7.85;80.60;99649.13;5007700;28;20292;-53
2023/01/04 08:22:46;;;;;;;4.10;1.00;;;;;;;7.94;80.28;99651.94;5004449;28;20252;-53
2023/01/04 08:25:13;;;;;;;2.73;0.60;;;;;;;7.98;78.36;99636.94;5006890;28;20236;-53
2023/01/04 08:27:40;;;;;;;2.20;0.70;;;;;;;8.04;79.89;99643.44;5007708;28;20244;-52
2023/01/04 08:30:08;;;;;;;1.60;0.60;;;;;;;8.11;77.90;99626.47;5004810;28;20396;-53
2023/01/04 08:32:35;;;;;;;1.50;0.63;;;;;;;8.13;77.73;99628.03;5006909;28;20232;-52
2023/01/04 08:35:02;;;;;;;1.10;0.53;;;;;;;8.23;78.04;99625.59;5004711;28;20277;-53
2023/01/04 08:37:30;;;;;;;1.47;0.50;;;;;;;8.31;76.69;99629.41;5007566;28;20641;-52
2023/01/04 08:39:58;;;;;;;4.00;0.60;;;;;;;8.38;75.95;99631.47;5002603;28;20233;-53
2023/01/04 08:42:25;;;;;;;3.57;0.70;;;;;;;8.44;74.19;99619.78;5007408;28;20644;-53
2023/01/04 08:44:51;;;;;;;1.93;0.60;;;;;;;8.48;74.23;99610.78;5004157;28;20271;-53
2023/01/04 08:47:18;;;;;;;1.93;0.77;;;;;;;8.50;74.96;99626.31;5007884;28;20236;-52
2023/01/04 08:49:44;;;;;;;2.00;0.50;;;;;;;8.57;74.15;99633.56;5003542;28;20243;-54
2023/01/04 08:52:12;;;;;;;1.43;0.50;;;;;;;8.61;74.18;99618.53;5007283;28;20237;-54
2023/01/04 08:54:39;;;;;;;1.53;0.60;;;;;;;8.70;73.73;99623.06;5007792;28;20264;-52
2023/01/04 08:57:07;;;;;;;3.50;0.70;;;;;;;8.76;72.92;99624.41;5003936;28;20633;-52
2023/01/04 08:59:33;;;;;;;0.70;0.40;;;;;;;8.80;73.33;99622.38;5007527;28;20617;-51
2023/01/04 09:02:00;;;;;;;3.20;0.70;;;;;;;8.83;73.01;99622.16;5002859;28;20274;-53
2023/01/04 09:04:26;;;;;;;2.23;0.60;;;;;;;8.83;73.89;99616.94;5010912;28;20645;-52
2023/01/04 09:06:53;;;;;;;2.63;0.60;;;;;;;8.81;72.73;99627.50;5003797;28;20221;-51
2023/01/04 09:09:19;;;;;;;1.77;0.80;;;;;;;8.81;73.34;99634.47;5006785;28;20225;-51
2023/01/04 09:11:46;;;;;;;2.73;0.77;;;;;;;8.84;73.51;99629.03;5003347;28;20214;-53
2023/01/04 09:14:14;;;;;;;7.22;2.28;;;;;;;8.84;73.05;99616.84;5006607;28;20435;-51
2023/01/04 09:16:40;;;;;;;2.73;2.10;;;;;;;8.84;73.05;99626.41;5005864;28;20227;-53
2023/01/04 09:19:07;;;;;;;1.70;0.80;;;;;;;8.88;74.17;99624.44;5003843;28;20245;-51
2023/01/04 09:21:34;;;;;;;4.40;1.00;;;;;;;8.89;73.34;99616.50;5006636;28;20327;-53
2023/01/04 09:24:01;;;;;;;1.90;1.67;;;;;;;8.92;72.36;99621.47;5003703;28;20232;-51
2023/01/04 09:26:27;;;;;;;2.40;1.10;;;;;;;8.92;72.79;99623.25;5006732;28;20229;-52
2023/01/04 09:28:55;;;;;;;5.83;3.80;;;;;;;8.96;71.85;99622.91;5002970;28;20233;-52
2023/01/04 09:31:25;;;;;;;2.50;1.40;;;;;;;9.04;72.00;99627.50;5005791;28;20224;-54
2023/01/04 09:33:52;;;;;;;2.40;2.17;;;;;;;9.06;71.31;99612.59;5003687;28;20252;-53
2023/01/04 09:36:19;;;;;;;3.43;2.60;;;;;;;9.10;71.83;99611.41;4994090;28;20230;-51
2023/01/04 09:38:46;;;;;;;1.80;0.40;;;;;;;9.10;72.51;99618.44;5003131;28;20244;-52
2023/01/04 09:41:20;;;;;;;1.57;0.90;;;;;;;9.16;72.83;99618.78;5005743;28;20233;-52
2023/01/04 09:43:48;;;;;;;2.00;0.40;;;;;;;9.13;72.21;99626.00;5002926;28;20255;-51
2023/01/04 09:46:22;;;;;;;1.80;0.80;;;;;;;9.12;73.36;99632.97;5006257;28;20244;-52
2023/01/04 09:48:54;;;;;;;1.00;0.50;;;;;;;9.16;71.64;99628.38;5000354;28;20290;-52
2023/01/04 09:51:30;;;;;;;4.50;0.77;;;;;;;9.22;72.51;99629.66;5004461;28;20241;-52
2023/01/04 09:54:02;;;;;;;3.40;0.60;;;;;;;9.23;72.48;99620.91;5003257;28;20233;-54
2023/01/04 09:56:32;;;;;;;2.00;0.80;;;;;;;9.26;72.71;99616.31;5005727;28;20222;-52
2023/01/04 09:59:01;;;;;;;2.73;0.70;;;;;;;9.24;72.97;99618.19;5001656;28;20229;-52
2023/01/04 10:01:32;;;;;;;1.93;0.53;;;;;;;9.28;73.00;99606.59;5004023;28;20242;-52
2023/01/04 10:04:07;;;;;;;1.90;0.80;;;;;;;9.36;74.37;99606.00;5001875;28;20430;-54
2023/01/04 10:06:35;;;;;;;1.00;0.47;;;;;;;9.38;72.26;99596.28;5005542;28;20239;-53
2023/01/04 10:09:06;;;;;;;2.13;0.60;;;;;;;9.47;72.92;99592.16;5002068;28;20233;-54
2023/01/04 10:11:50;;;;;;;2.37;0.70;;;;;;;9.52;72.35;99608.25;5005737;28;20246;-54
2023/01/04 10:14:39;;;;;;;2.60;1.00;;;;;;;9.54;72.77;99601.13;5003205;28;20233;-54
2023/01/04 10:17:21;;;;;;;2.93;0.70;;;;;;;9.69;71.13;99587.81;5003276;28;20299;-53
2023/01/04 10:20:17;;;;;;;1.60;0.70;;;;;;;9.71;72.50;99581.56;5003074;28;20234;-53
2023/01/04 10:22:51;;;;;;;1.53;0.63;;;;;;;9.76;72.71;99581.19;5005548;28;20237;-53
2023/01/04 10:25:24;;;;;;;1.53;0.47;;;;;;;9.81;71.61;99581.66;5003258;28;20868;-54
2023/01/04 10:28:03;;;;;;;1.13;0.60;;;;;;;9.86;71.15;99570.88;5002594;28;20706;-54
2023/01/04 10:30:39;;;;;;;0.97;0.60;;;;;;;9.84;72.49;99576.19;5005265;28;20267;-52
2023/01/04 10:33:12;;;;;;;2.33;0.60;;;;;;;9.87;72.65;99577.72;5001790;28;20264;-54
2023/01/04 10:35:42;;;;;;;1.87;0.70;;;;;;;9.88;72.93;99561.13;5005194;28;20283;-54
2023/01/04 10:38:16;;;;;;;3.57;0.60;;;;;;;9.88;72.62;99569.78;5001212;28;20637;-54
2023/01/04 10:40:45;;;;;;;1.13;0.50;;;;;;;9.94;74.26;99578.06;5005107;28;20236;-54
2023/01/04 10:43:20;;;;;;;3.63;0.60;;;;;;;9.95;71.91;99545.81;5015972;23;20238;-62
2023/01/04 10:45:53;;;;;;;1.17;0.50;;;;;;;9.95;74.10;99561.47;5001436;28;20980;-63
2023/01/04 10:48:27;;;;;;;1.77;0.40;;;;;;;9.94;72.79;99550.22;5004686;28;20291;-63
2023/01/04 10:50:57;;;;;;;2.03;0.70;;;;;;;10.02;73.17;99570.44;5001571;28;20280;-63
2023/01/04 10:53:28;;;;;;;2.73;0.80;;;;;;;9.97;73.36;99555.19;5004604;28;20238;-63
2023/01/04 10:56:02;;;;;;;1.97;0.83;;;;;;;9.98;73.20;99559.44;5001289;28;20223;-63
2023/01/04 10:58:37;;;;;;;2.23;0.87;;;;;;;10.15;72.55;99545.03;5004902;28;20241;-63
2023/01/04 11:01:09;;;;;;;3.80;1.70;;;;;;;10.02;73.12;99542.59;5004104;28;20238;-63
2023/01/04 11:03:40;;;;;;;3.07;2.70;;;;;;;10.16;73.63;99544.06;5008132;28;20379;-63
2023/01/04 11:06:15;;;;;;;4.90;1.37;;;;;;;10.05;73.37;99538.91;5005658;28;20245;-63
2023/01/04 11:08:47;;;;;;;3.27;0.80;;;;;;;10.13;72.91;99530.44;5007995;28;20238;-63
2023/01/04 11:11:20;;;;;;;2.73;1.40;;;;;;;10.08;73.77;99543.88;5005522;28;20245;-63
2023/01/04 11:13:47;;;;;;;2.60;0.90;;;;;;;10.30;72.51;99535.09;5005639;28;20284;-63
2023/01/04 11:16:13;;;;;;;2.87;0.90;;;;;;;10.28;72.48;99525.75;5008320;28;20602;-63
2023/01/04 11:18:42;;;;;;;14.30;6.73;;;;;;;10.45;72.61;99533.03;5008499;28;20371;-62
2023/01/04 11:21:13;;;;;;;2.87;0.70;;;;;;;10.37;71.78;99538.03;5005308;28;20296;-62
2023/01/04 11:23:40;;;;;;;1.27;0.70;;;;;;;10.42;71.83;99538.53;5007428;28;20333;-62
2023/01/04 11:26:13;;;;;;;1.03;0.60;;;;;;;10.44;72.18;99530.56;5004713;28;20761;-61
2023/01/04 11:28:44;;;;;;;3.13;0.80;;;;;;;10.33;72.42;99528.81;5008141;28;20296;-61
2023/01/04 11:31:20;;;;;;;2.27;0.50;;;;;;;10.28;73.20;99525.75;5005463;28;20239;-61
2023/01/04 11:33:56;;;;;;;3.13;0.60;;;;;;;10.26;73.35;99527.66;5004590;28;20281;-60
2023/01/04 11:36:36;;;;;;;1.27;0.60;;;;;;;10.16;73.65;99520.59;5007398;28;20394;-60
2023/01/04 11:39:05;;;;;;;1.80;0.53;;;;;;;10.10;74.54;99526.31;5004696;28;20584;-60
2023/01/04 11:41:32;;;;;;;1.90;0.73;;;;;;;10.16;75.75;99527.56;5006419;28;20312;-61
2023/01/04 11:44:02;;;;;;;0.83;0.50;;;;;;;10.15;74.63;99531.97;5004034;28;20662;-61
2023/01/04 11:46:30;;;;;;;0.60;0.40;;;;;;;10.18;74.73;99539.56;5007549;28;20235;-61
2023/01/04 11:48:57;;;;;;;2.00;0.40;;;;;;;10.14;75.51;99545.13;5004838;28;20626;-61
2023/01/04 11:51:39;;;;;;;2.57;0.50;;;;;;;10.19;73.77;99548.19;5007551;28;21250;-61
2023/01/04 11:54:18;;;;;;;3.00;0.63;;;;;;;10.04;73.64;99551.13;5004579;28;20230;-61
2023/01/04 11:57:02;;;;;;;2.43;0.67;;;;;;;10.00;75.21;99554.94;5004711;28;20277;-61
2023/01/04 11:59:29;;;;;;;2.83;0.50;;;;;;;9.84;73.69;99559.72;5007220;28;20248;-61
2023/01/04 12:02:20;;;;;;;1.10;0.50;;;;;;;9.80;73.26;99563.53;5004710;28;20245;-61
2023/01/04 12:04:47;;;;;;;0.90;0.60;;;;;;;9.75;74.26;99567.31;5004525;28;20248;-61
2023/01/04 12:07:27;;;;;;;4.83;0.83;;;;;;;9.78;74.14;99566.25;5007397;28;20257;-61
2023/01/04 12:09:53;;;;;;;1.23;0.57;;;;;;;9.75;75.43;99566.47;5004445;28;20598;-61
2023/01/04 12:12:21;;;;;;;1.83;1.30;;;;;;;9.72;75.34;99545.88;5006287;28;20238;-61
2023/01/04 12:14:49;;;;;;;4.63;0.97;;;;;;;9.75;74.47;99549.06;5004076;28;20263;-61
2023/01/04 12:17:22;;;;;;;1.10;0.60;;;;;;;9.75;74.88;99564.72;5005754;28;20575;-61
2023/01/04 12:19:53;;;;;;;3.00;0.80;;;;;;;9.86;74.30;99543.00;5004277;28;20598;-61
2023/01/04 12:22:24;;;;;;;1.30;0.60;;;;;;;9.95;74.17;99545.81;5007312;28;20233;-61
2023/01/04 12:24:53;;;;;;;2.40;0.60;;;;;;;9.98;74.43;99529.91;5003926;28;20235;-61
2023/01/04 12:27:20;;;;;;;1.17;0.50;;;;;;;10.13;74.03;99538.25;5007176;28;20224;-61
2023/01/04 12:29:57;;;;;;;1.63;0.53;;;;;;;10.18;73.73;99517.84;5003653;28;20816;-61
2023/01/04 12:32:43;;;;;;;2.43;0.70;;;;;;;10.17;74.17;99531.84;5005987;28;20238;-61
2023/01/04 12:35:59;;;;;;;1.87;0.60;;;;;;;10.41;73.97;99523.81;5004164;28;20698;-62
2023/01/04 12:39:05;;;;;;;3.23;1.20;;;;;;;10.41;74.33;99522.97;5004539;28;20613;-62
2023/01/04 12:42:09;;;;;;;1.50;1.13;;;;;;;10.59;73.11;99523.25;5003695;28;20236;-62